createdAt,value
2018-09-24T00:00:58.432Z,99.90
2018-09-24T00:03:25.867Z,99.90
2018-09-24T00:05:53.331Z,99.90
2018-09-24T00:08:20.755Z,99.90
2018-09-24T00:10:48.207Z,99.90
2018-09-24T00:13:15.711Z,99.90
2018-09-24T00:15:43.137Z,99.90
2018-09-24T00:18:10.579Z,99.90
2018-09-24T00:20:37.994Z,99.90
2018-09-24T00:23:05.451Z,99.90
2018-09-24T00:25:32.941Z,99.90
2018-09-24T00:28:00.369Z,99.90
2018-09-24T00:30:27.799Z,99.90
2018-09-24T00:32:55.287Z,99.90
2018-09-24T00:35:22.704Z,99.90
2018-09-24T00:37:50.128Z,99.90
2018-09-24T00:40:17.595Z,99.90
2018-09-24T00:42:45.048Z,99.90
2018-09-24T00:45:12.489Z,99.90
2018-09-24T00:47:39.931Z,99.90
2018-09-24T00:50:07.371Z,99.90
2018-09-24T00:52:34.816Z,99.90
2018-09-24T00:55:02.283Z,99.90
2018-09-24T00:57:29.820Z,99.90
2018-09-24T00:59:57.287Z,99.90
2018-09-24T01:02:24.735Z,99.90
2018-09-24T01:04:52.170Z,99.90
2018-09-24T01:07:19.635Z,99.90
2018-09-24T01:09:47.226Z,99.90
2018-09-24T01:12:14.635Z,99.90
2018-09-24T01:14:42.083Z,99.90
2018-09-24T01:17:09.569Z,99.90
2018-09-24T01:19:36.978Z,99.90
2018-09-24T01:22:04.423Z,99.90
2018-09-24T01:24:31.869Z,99.90
2018-09-24T01:26:59.972Z,99.90
2018-09-24T01:29:27.415Z,99.90
2018-09-24T01:31:54.850Z,99.90
2018-09-24T01:34:22.287Z,99.90
2018-09-24T01:36:49.730Z,99.90
2018-09-24T01:39:17.199Z,99.90
2018-09-24T01:41:44.643Z,99.90
2018-09-24T01:44:12.072Z,99.90
2018-09-24T01:46:39.519Z,99.90
2018-09-24T01:49:06.963Z,99.90
2018-09-24T01:51:35.227Z,99.90
2018-09-24T01:54:04.726Z,99.90
2018-09-24T01:56:32.833Z,99.90
2018-09-24T01:59:00.700Z,99.90
2018-09-24T02:01:28.676Z,99.90
2018-09-24T02:03:56.580Z,99.90
2018-09-24T02:06:24.526Z,99.90
2018-09-24T02:08:51.991Z,99.90
2018-09-24T02:11:19.441Z,99.90
2018-09-24T02:13:48.700Z,99.90
2018-09-24T02:16:16.508Z,99.90
2018-09-24T02:18:44.369Z,99.90
2018-09-24T02:21:11.863Z,99.90
2018-09-24T02:23:39.310Z,99.90
2018-09-24T02:26:06.797Z,99.90
2018-09-24T02:28:34.241Z,99.90
2018-09-24T02:31:01.719Z,99.90
2018-09-24T02:33:29.160Z,99.90
2018-09-24T02:35:56.595Z,99.90
2018-09-24T02:38:24.034Z,99.90
2018-09-24T02:40:51.466Z,99.90
2018-09-24T02:43:23.891Z,99.90
2018-09-24T02:45:52.267Z,99.90
2018-09-24T02:48:19.746Z,99.90
2018-09-24T02:50:47.203Z,99.90
2018-09-24T02:53:14.679Z,99.90
2018-09-24T02:55:42.135Z,99.90
2018-09-24T02:58:15.061Z,99.90
2018-09-24T03:00:43.037Z,99.90
2018-09-24T03:03:11.058Z,99.90
2018-09-24T03:05:38.500Z,99.90
2018-09-24T03:08:08.844Z,99.90
2018-09-24T03:10:36.449Z,99.90
2018-09-24T03:13:03.901Z,99.90
2018-09-24T03:15:35.435Z,99.90
2018-09-24T03:18:02.927Z,99.90
2018-09-24T03:20:34.383Z,99.90
2018-09-24T03:23:01.904Z,99.90
2018-09-24T03:25:29.354Z,99.90
2018-09-24T03:27:58.333Z,99.90
2018-09-24T03:30:30.407Z,99.90
2018-09-24T03:32:58.120Z,99.90
2018-09-24T03:35:25.540Z,99.90
2018-09-24T03:37:53.029Z,99.90
2018-09-24T03:40:20.527Z,99.90
2018-09-24T03:42:47.955Z,99.90
2018-09-24T03:45:15.388Z,99.90
2018-09-24T03:47:42.837Z,99.90
2018-09-24T03:50:10.294Z,99.90
2018-09-24T03:52:37.776Z,99.90
2018-09-24T03:55:05.296Z,99.90
2018-09-24T03:57:32.730Z,99.90
2018-09-24T04:00:00.195Z,99.90
2018-09-24T04:02:27.632Z,99.90
2018-09-24T04:05:00.851Z,99.90
2018-09-24T04:07:34.008Z,99.90
2018-09-24T04:10:07.307Z,99.90
2018-09-24T04:12:40.327Z,99.90
2018-09-24T04:15:13.612Z,99.90
2018-09-24T04:17:46.791Z,99.90
2018-09-24T04:20:19.942Z,99.90
2018-09-24T04:22:53.101Z,99.90
2018-09-24T04:25:26.084Z,99.90
2018-09-24T04:27:59.324Z,99.90
2018-09-24T04:30:32.582Z,99.90
2018-09-24T04:33:05.763Z,99.90
2018-09-24T04:35:38.983Z,99.90
2018-09-24T04:38:12.171Z,99.90
2018-09-24T04:40:45.128Z,99.90
2018-09-24T04:43:18.289Z,99.90
2018-09-24T04:45:51.491Z,99.90
2018-09-24T04:48:24.700Z,99.90
2018-09-24T04:50:57.656Z,99.90
2018-09-24T04:53:30.691Z,99.90
2018-09-24T04:56:03.898Z,99.90
2018-09-24T04:58:36.910Z,99.90
2018-09-24T05:01:12.411Z,99.90
2018-09-24T05:03:45.413Z,99.90
2018-09-24T05:06:18.672Z,99.90
2018-09-24T05:08:51.826Z,99.90
2018-09-24T05:11:26.545Z,99.90
2018-09-24T05:13:59.655Z,99.90
2018-09-24T05:16:32.806Z,99.90
2018-09-24T05:19:05.984Z,99.90
2018-09-24T05:21:39.228Z,99.90
2018-09-24T05:24:12.441Z,99.90
2018-09-24T05:26:45.611Z,99.90
2018-09-24T05:29:18.544Z,99.90
2018-09-24T05:31:51.699Z,99.90
2018-09-24T05:34:24.892Z,99.90
2018-09-24T05:36:58.052Z,99.90
2018-09-24T05:39:31.143Z,99.90
2018-09-24T05:42:04.284Z,99.90
2018-09-24T05:44:37.359Z,99.90
2018-09-24T05:47:10.468Z,99.90
2018-09-24T05:49:43.545Z,99.90
2018-09-24T05:52:16.494Z,99.90
2018-09-24T05:54:49.630Z,99.90
2018-09-24T05:57:22.792Z,99.90
2018-09-24T05:59:55.715Z,99.90
2018-09-24T06:02:28.923Z,99.90
2018-09-24T06:05:02.095Z,99.90
2018-09-24T06:07:35.375Z,99.90
2018-09-24T06:10:08.547Z,99.90
2018-09-24T06:12:41.725Z,99.90
2018-09-24T06:15:15.200Z,99.90
2018-09-24T06:17:48.459Z,99.90
2018-09-24T06:20:21.799Z,99.90
2018-09-24T06:22:54.879Z,99.90
2018-09-24T06:25:28.052Z,99.90
2018-09-24T06:28:01.465Z,99.90
2018-09-24T06:30:34.597Z,99.90
2018-09-24T06:33:07.820Z,99.90
2018-09-24T06:35:41.014Z,99.90
2018-09-24T06:38:14.124Z,99.90
2018-09-24T06:40:47.193Z,99.90
2018-09-24T06:43:20.429Z,99.90
2018-09-24T06:45:53.603Z,99.90
2018-09-24T06:48:26.636Z,99.90
2018-09-24T06:50:59.763Z,99.90
2018-09-24T06:53:32.954Z,99.90
2018-09-24T06:56:06.115Z,99.90
2018-09-24T06:58:39.526Z,99.90
2018-09-24T07:01:15.034Z,99.90
2018-09-24T07:03:50.224Z,99.90
2018-09-24T07:06:23.614Z,99.90
2018-09-24T07:08:56.810Z,99.90
2018-09-24T07:11:30.919Z,99.90
2018-09-24T07:14:04.963Z,99.90
2018-09-24T07:16:38.176Z,99.90
2018-09-24T07:19:11.346Z,99.90
2018-09-24T07:21:44.465Z,99.90
2018-09-24T07:24:17.628Z,99.90
2018-09-24T07:26:50.800Z,99.90
2018-09-24T07:29:23.973Z,99.90
2018-09-24T07:31:57.219Z,99.90
2018-09-24T07:34:30.423Z,99.90
2018-09-24T07:37:03.594Z,99.90
2018-09-24T07:39:36.826Z,99.90
2018-09-24T07:42:09.953Z,99.90
2018-09-24T07:44:42.967Z,99.90
2018-09-24T07:47:16.234Z,99.90
2018-09-24T07:49:49.448Z,99.90
2018-09-24T07:52:22.633Z,99.90
2018-09-24T07:54:55.879Z,99.90
2018-09-24T07:57:29.076Z,99.90
2018-09-24T08:00:02.115Z,99.90
2018-09-24T08:02:35.628Z,99.90
2018-09-24T08:05:08.689Z,99.90
2018-09-24T08:07:41.729Z,99.90
2018-09-24T08:10:14.949Z,99.90
2018-09-24T08:12:48.154Z,99.90
2018-09-24T08:15:21.386Z,99.90
2018-09-24T08:17:54.336Z,99.90
2018-09-24T08:20:27.507Z,99.90
2018-09-24T08:23:00.439Z,99.90
2018-09-24T08:25:33.634Z,99.90
2018-09-24T08:28:06.840Z,99.90
2018-09-24T08:30:40.083Z,99.90
2018-09-24T08:33:13.262Z,99.90
2018-09-24T08:35:46.448Z,99.90
2018-09-24T08:38:19.703Z,99.90
2018-09-24T08:40:52.682Z,99.90
2018-09-24T08:43:25.910Z,99.90
2018-09-24T08:45:59.051Z,99.90
2018-09-24T08:48:32.180Z,99.90
2018-09-24T08:51:05.148Z,99.90
2018-09-24T08:53:38.542Z,99.90
2018-09-24T08:56:11.468Z,99.90
2018-09-24T08:58:44.578Z,99.90
2018-09-24T09:01:24.779Z,99.90
2018-09-24T09:03:58.185Z,99.90
2018-09-24T09:06:31.335Z,99.90
2018-09-24T09:09:04.555Z,99.90
2018-09-24T09:11:37.836Z,99.90
2018-09-24T09:14:11.270Z,99.90
2018-09-24T09:16:44.472Z,99.90
2018-09-24T09:19:17.664Z,99.90
2018-09-24T09:21:50.574Z,99.90
2018-09-24T09:24:23.750Z,99.90
2018-09-24T09:26:56.906Z,99.90
2018-09-24T09:29:30.109Z,99.60
2018-09-24T09:32:03.338Z,98.60
2018-09-24T09:34:36.515Z,97.80
2018-09-24T09:37:09.703Z,99.20
2018-09-24T09:39:43.051Z,99.90
2018-09-24T09:42:16.244Z,99.90
2018-09-24T09:44:49.507Z,99.90
2018-09-24T09:47:22.746Z,99.90
2018-09-24T09:49:56.065Z,99.90
2018-09-24T09:52:29.473Z,99.90
2018-09-24T09:55:02.764Z,99.90
2018-09-24T09:57:35.833Z,99.90
2018-09-24T10:00:08.852Z,99.90
2018-09-24T10:02:42.191Z,99.40
2018-09-24T10:05:15.298Z,98.50
2018-09-24T10:07:48.500Z,98.10
2018-09-24T10:10:21.618Z,98.10
2018-09-24T10:12:54.792Z,97.20
2018-09-24T10:15:27.761Z,98.70
2018-09-24T10:18:00.745Z,99.30
2018-09-24T10:20:33.956Z,99.90
2018-09-24T10:23:07.100Z,99.90
2018-09-24T10:25:40.244Z,98.30
2018-09-24T10:28:13.412Z,97.00
2018-09-24T10:30:46.610Z,96.70
2018-09-24T10:33:19.605Z,95.20
2018-09-24T10:35:52.750Z,94.40
2018-09-24T10:38:25.870Z,94.70
2018-09-24T10:40:59.050Z,94.30
2018-09-24T10:43:32.235Z,94.20
2018-09-24T10:46:05.596Z,92.50
2018-09-24T10:48:38.784Z,92.00
2018-09-24T10:51:11.960Z,92.10
2018-09-24T10:53:45.223Z,92.40
2018-09-24T10:56:18.387Z,92.60
2018-09-24T10:58:51.679Z,92.40
2018-09-24T11:01:24.924Z,91.70
2018-09-24T11:03:58.212Z,90.60
2018-09-24T11:06:31.362Z,88.20
2018-09-24T11:09:04.570Z,88.00
2018-09-24T11:11:37.475Z,87.80
2018-09-24T11:14:11.104Z,87.00
2018-09-24T11:16:44.226Z,87.70
2018-09-24T11:19:17.252Z,88.90
2018-09-24T11:21:50.615Z,92.40
2018-09-24T11:24:23.740Z,92.40
2018-09-24T11:26:56.886Z,91.90
2018-09-24T11:29:30.109Z,91.60
2018-09-24T11:32:03.175Z,91.40
2018-09-24T11:34:36.175Z,91.80
2018-09-24T11:37:09.383Z,92.90
2018-09-24T11:39:42.554Z,92.50
2018-09-24T11:42:27.601Z,90.50
2018-09-24T11:45:00.762Z,86.10
2018-09-24T11:47:33.719Z,82.60
2018-09-24T11:50:06.883Z,81.90
2018-09-24T11:52:40.040Z,79.50
2018-09-24T11:55:13.222Z,79.60
2018-09-24T11:57:46.523Z,79.60
2018-09-24T12:00:19.674Z,79.80
2018-09-24T12:02:52.767Z,78.90
2018-09-24T12:05:25.929Z,80.20
2018-09-24T12:07:59.201Z,80.40
2018-09-24T12:10:32.454Z,81.70
2018-09-24T12:13:05.563Z,81.90
2018-09-24T12:15:38.808Z,82.30
2018-09-24T12:18:12.045Z,82.60
2018-09-24T12:20:45.272Z,82.80
2018-09-24T12:23:18.499Z,83.40
2018-09-24T12:25:51.524Z,83.60
2018-09-24T12:28:24.924Z,83.80
2018-09-24T12:30:59.453Z,84.20
2018-09-24T12:33:32.680Z,86.00
2018-09-24T12:36:05.856Z,87.40
2018-09-24T12:38:41.493Z,90.70
2018-09-24T12:41:14.534Z,90.40
2018-09-24T12:43:47.576Z,91.40
2018-09-24T12:46:20.752Z,92.10
2018-09-24T12:48:53.893Z,92.20
2018-09-24T12:51:27.059Z,92.60
2018-09-24T12:54:00.263Z,92.80
2018-09-24T12:56:35.219Z,92.80
2018-09-24T12:59:08.366Z,92.90
2018-09-24T13:01:41.551Z,92.10
2018-09-24T13:04:14.731Z,92.00
2018-09-24T13:06:47.973Z,91.90
2018-09-24T13:09:21.180Z,92.00
2018-09-24T13:11:54.147Z,92.10
2018-09-24T13:14:27.338Z,91.40
2018-09-24T13:17:00.690Z,91.60
2018-09-24T13:19:33.880Z,91.00
2018-09-24T13:22:07.404Z,90.50
2018-09-24T13:24:40.863Z,90.80
2018-09-24T13:27:15.393Z,90.60
2018-09-24T13:29:48.885Z,88.20
2018-09-24T13:32:22.293Z,88.10
2018-09-24T13:34:55.755Z,88.30
2018-09-24T13:37:29.020Z,88.40
2018-09-24T13:40:02.399Z,88.60
2018-09-24T13:42:35.509Z,88.50
2018-09-24T13:45:08.745Z,88.60
2018-09-24T13:47:43.104Z,88.60
2018-09-24T13:50:16.249Z,90.20
2018-09-24T13:52:49.379Z,90.40
2018-09-24T13:55:22.579Z,90.00
2018-09-24T13:57:55.828Z,89.90
2018-09-24T14:00:28.747Z,89.80
2018-09-24T14:03:02.335Z,89.80
2018-09-24T14:05:35.428Z,90.00
2018-09-24T14:08:08.659Z,90.80
2018-09-24T14:10:41.856Z,90.80
2018-09-24T14:13:15.200Z,90.80
2018-09-24T14:15:48.295Z,91.10
2018-09-24T14:18:21.405Z,91.40
2018-09-24T14:20:54.574Z,93.10
2018-09-24T14:23:27.722Z,93.80
2018-09-24T14:26:00.903Z,94.30
2018-09-24T14:28:34.066Z,94.70
2018-09-24T14:31:07.507Z,94.80
2018-09-24T14:33:40.792Z,94.80
2018-09-24T14:36:13.934Z,94.70
2018-09-24T14:38:47.143Z,95.00
2018-09-24T14:41:20.323Z,95.40
2018-09-24T14:43:53.310Z,95.60
2018-09-24T14:46:26.503Z,95.50
2018-09-24T14:48:59.524Z,95.30
2018-09-24T14:51:32.443Z,95.60
2018-09-24T14:54:05.762Z,95.40
2018-09-24T14:56:38.899Z,95.60
2018-09-24T14:59:12.102Z,95.30
2018-09-24T15:01:45.258Z,96.70
2018-09-24T15:04:18.395Z,98.60
2018-09-24T15:06:51.320Z,98.60
2018-09-24T15:09:24.490Z,99.50
2018-09-24T15:11:57.576Z,99.90
2018-09-24T15:14:30.800Z,99.90
2018-09-24T15:17:03.984Z,99.90
2018-09-24T15:19:37.236Z,99.40
2018-09-24T15:22:10.371Z,99.90
2018-09-24T15:24:43.652Z,99.70
2018-09-24T15:27:16.799Z,99.80
2018-09-24T15:29:49.955Z,99.30
2018-09-24T15:32:23.077Z,99.10
2018-09-24T15:34:56.182Z,99.60
2018-09-24T15:37:29.232Z,99.60
2018-09-24T15:40:02.432Z,99.90
2018-09-24T15:42:35.680Z,99.40
2018-09-24T15:45:08.811Z,99.90
2018-09-24T15:47:41.963Z,99.60
2018-09-24T15:50:15.079Z,99.50
2018-09-24T15:52:48.218Z,99.60
2018-09-24T15:55:21.136Z,99.90
2018-09-24T15:57:54.367Z,99.90
2018-09-24T16:00:27.523Z,99.90
2018-09-24T16:03:00.679Z,99.90
2018-09-24T16:05:33.861Z,99.90
2018-09-24T16:08:07.024Z,99.90
2018-09-24T16:10:40.135Z,99.90
2018-09-24T16:13:13.151Z,99.90
2018-09-24T16:15:46.319Z,99.90
2018-09-24T16:18:19.571Z,99.90
2018-09-24T16:20:52.803Z,99.90
2018-09-24T16:23:25.881Z,99.90
2018-09-24T16:25:59.039Z,99.90
2018-09-24T16:28:31.974Z,99.90
2018-09-24T16:31:05.205Z,99.90
2018-09-24T16:33:38.147Z,99.90
2018-09-24T16:36:11.375Z,99.90
2018-09-24T16:38:44.479Z,99.90
2018-09-24T16:41:17.739Z,99.90
2018-09-24T16:43:50.832Z,99.90
2018-09-24T16:46:23.949Z,99.90
2018-09-24T16:48:57.179Z,99.90
2018-09-24T16:51:30.388Z,99.90
2018-09-24T16:54:03.509Z,99.90
2018-09-24T16:56:36.652Z,99.90
2018-09-24T16:59:09.883Z,99.90
2018-09-24T17:01:42.983Z,99.90
2018-09-24T17:04:16.178Z,99.90
2018-09-24T17:06:49.352Z,99.90
2018-09-24T17:09:22.456Z,99.90
2018-09-24T17:11:55.804Z,99.90
2018-09-24T17:14:29.046Z,99.90
2018-09-24T17:17:01.973Z,99.90
2018-09-24T17:19:35.156Z,99.90
2018-09-24T17:22:08.373Z,99.90
2018-09-24T17:24:41.559Z,99.90
2018-09-24T17:27:14.859Z,99.90
2018-09-24T17:29:47.880Z,99.90
2018-09-24T17:32:21.123Z,99.90
2018-09-24T17:34:54.361Z,99.90
2018-09-24T17:37:27.830Z,99.90
2018-09-24T17:40:01.128Z,99.90
2018-09-24T17:42:34.303Z,99.90
2018-09-24T17:45:07.602Z,99.90
2018-09-24T17:47:40.707Z,99.90
2018-09-24T17:50:14.004Z,99.90
2018-09-24T17:52:47.278Z,99.90
2018-09-24T17:55:20.372Z,99.90
2018-09-24T17:57:53.741Z,99.90
2018-09-24T18:00:26.948Z,99.90
2018-09-24T18:02:59.883Z,99.90
2018-09-24T18:05:32.963Z,99.90
2018-09-24T18:08:06.162Z,99.90
2018-09-24T18:10:39.887Z,99.90
2018-09-24T18:13:13.324Z,99.90
2018-09-24T18:15:46.568Z,99.90
2018-09-24T18:18:19.549Z,99.90
2018-09-24T18:20:53.027Z,99.90
2018-09-24T18:23:26.504Z,99.90
2018-09-24T18:25:59.727Z,99.90
2018-09-24T18:28:32.971Z,99.90
2018-09-24T18:31:06.099Z,99.90
2018-09-24T18:33:39.272Z,99.90
2018-09-24T18:36:12.668Z,99.90
2018-09-24T18:38:45.834Z,99.90
2018-09-24T18:41:19.006Z,99.90
2018-09-24T18:43:52.505Z,99.90
2018-09-24T18:46:25.648Z,99.90
2018-09-24T18:48:58.861Z,99.90
2018-09-24T18:51:31.992Z,99.90
2018-09-24T18:54:05.204Z,99.90
2018-09-24T18:56:38.368Z,99.90
2018-09-24T18:59:13.553Z,99.90
2018-09-24T19:01:47.011Z,99.90
2018-09-24T19:04:20.364Z,99.90
2018-09-24T19:06:53.535Z,99.90
2018-09-24T19:09:26.703Z,99.90
2018-09-24T19:11:59.909Z,99.90
2018-09-24T19:14:33.356Z,99.90
2018-09-24T19:17:06.585Z,99.90
2018-09-24T19:19:39.861Z,99.90
2018-09-24T19:22:13.397Z,99.90
2018-09-24T19:24:46.677Z,99.90
2018-09-24T19:27:19.853Z,99.90
2018-09-24T19:29:52.882Z,99.90
2018-09-24T19:32:25.787Z,99.90
2018-09-24T19:34:59.023Z,99.90
2018-09-24T19:37:32.484Z,99.90
2018-09-24T19:40:05.527Z,99.90
2018-09-24T19:42:38.503Z,99.90
2018-09-24T19:45:11.662Z,99.90
2018-09-24T19:47:45.000Z,99.90
2018-09-24T19:50:18.031Z,99.90
2018-09-24T19:52:52.525Z,99.90
2018-09-24T19:55:25.703Z,99.90
2018-09-24T19:57:58.984Z,99.90
2018-09-24T20:00:32.119Z,99.90
2018-09-24T20:03:05.319Z,99.90
2018-09-24T20:05:38.428Z,99.90
2018-09-24T20:08:11.620Z,99.90
2018-09-24T20:10:44.799Z,99.90
2018-09-24T20:13:18.055Z,99.90
2018-09-24T20:15:51.174Z,99.90
2018-09-24T20:18:24.308Z,99.90
2018-09-24T20:20:57.513Z,99.90
2018-09-24T20:23:30.725Z,99.90
2018-09-24T20:26:03.887Z,99.90
2018-09-24T20:28:36.971Z,99.90
2018-09-24T20:31:10.233Z,99.90
2018-09-24T20:33:43.500Z,99.90
2018-09-24T20:36:16.691Z,99.90
2018-09-24T20:38:49.628Z,99.90
2018-09-24T20:41:22.843Z,99.90
2018-09-24T20:43:56.055Z,99.90
2018-09-24T20:46:29.323Z,99.90
2018-09-24T20:49:02.520Z,99.90
2018-09-24T20:51:35.583Z,99.90
2018-09-24T20:54:08.868Z,99.90
2018-09-24T20:56:42.039Z,99.90
2018-09-24T20:59:15.268Z,99.90
2018-09-24T21:01:48.331Z,99.90
2018-09-24T21:04:21.398Z,99.90
2018-09-24T21:06:54.574Z,99.90
2018-09-24T21:09:27.804Z,99.90
2018-09-24T21:12:00.984Z,99.90
2018-09-24T21:14:34.199Z,99.90
2018-09-24T21:17:07.311Z,99.90
2018-09-24T21:19:41.096Z,99.90
2018-09-24T21:22:17.419Z,99.90
2018-09-24T21:24:50.674Z,99.90
2018-09-24T21:27:23.911Z,99.90
2018-09-24T21:29:56.887Z,99.90
2018-09-24T21:32:30.103Z,99.90
2018-09-24T21:35:03.303Z,99.90
2018-09-24T21:37:36.475Z,99.90
2018-09-24T21:40:09.670Z,99.90
2018-09-24T21:42:42.823Z,99.90
2018-09-24T21:45:16.035Z,99.90
2018-09-24T21:47:49.087Z,99.90
2018-09-24T21:50:21.971Z,99.90
2018-09-24T21:52:55.176Z,99.90
2018-09-24T21:55:28.367Z,99.90
2018-09-24T21:58:01.552Z,99.90
2018-09-24T22:00:34.997Z,99.90
2018-09-24T22:03:08.200Z,99.90
2018-09-24T22:05:41.397Z,99.90
2018-09-24T22:08:14.685Z,99.90
2018-09-24T22:10:47.807Z,99.90
2018-09-24T22:13:20.768Z,99.90
2018-09-24T22:15:53.855Z,99.90
2018-09-24T22:18:26.839Z,99.90
2018-09-24T22:20:59.876Z,99.90
2018-09-24T22:23:33.023Z,99.90
2018-09-24T22:26:05.932Z,99.90
2018-09-24T22:28:38.934Z,99.90
2018-09-24T22:31:12.111Z,99.90
2018-09-24T22:33:45.472Z,99.90
2018-09-24T22:36:18.480Z,99.90
2018-09-24T22:38:51.566Z,99.90
2018-09-24T22:41:24.554Z,99.90
2018-09-24T22:43:57.779Z,99.90
2018-09-24T22:46:30.932Z,99.90
2018-09-24T22:49:03.888Z,99.90
2018-09-24T22:51:37.035Z,99.90
2018-09-24T22:54:10.256Z,99.90
2018-09-24T22:56:43.233Z,99.90
2018-09-24T22:59:16.394Z,99.90
2018-09-24T23:01:49.359Z,99.90
2018-09-24T23:04:22.633Z,99.90
2018-09-24T23:06:55.727Z,99.90
2018-09-24T23:09:28.768Z,99.90
2018-09-24T23:12:01.910Z,99.90
2018-09-24T23:14:34.966Z,99.90
2018-09-24T23:17:08.120Z,99.90
2018-09-24T23:19:41.312Z,99.90
2018-09-24T23:22:14.487Z,99.90
2018-09-24T23:24:47.428Z,99.90
2018-09-24T23:27:20.489Z,99.90
2018-09-24T23:29:53.571Z,99.90
2018-09-24T23:32:26.756Z,99.90
2018-09-24T23:34:59.882Z,99.90
2018-09-24T23:37:33.076Z,99.90
2018-09-24T23:40:06.187Z,99.90
2018-09-24T23:42:39.329Z,99.90
2018-09-24T23:45:12.823Z,99.90
2018-09-24T23:47:45.999Z,99.90
2018-09-24T23:50:19.187Z,99.90
2018-09-24T23:52:52.087Z,99.90
2018-09-24T23:55:25.317Z,99.90
2018-09-24T23:57:58.483Z,99.90
